Portada
METAR-TAF:

METAR-TAF

Aeroports :

Pakse, Laos

latitud: 15-08-02N, longitud: 105-46-55E, altitud: 107 m

Observació

L'informe es va fer fa 1 hora i 18 minuts, a les 07:00 UTC
Vent 4 kt del Oest
Temperatura 35°C
Humitat 50%
Pressió 1008 hPa
Visibilitat 10 km o més
Núvols disperses a una alçada de 3000 ft

METAR: VLPS 230700Z 27004KT 9999 SCT030 35/23 Q1008 NOSIG

Hora: 15:18 (08:18 UTC)

Pronòstic

L'informe es va fer fa 3 hores i 18 minuts, a les 05:00 UTC
Pronòstic vàlid del 23 a les 06 UTC al 24 a les 06 UTC
Vent 4 kt del Sud
Visibilitat 10 km o més
Núvols disperses a una alçada de 2300 ft
Escasses núvols a una alçada de 5000 ft
Núvols disperses a una alçada de 20000 ft

TAF: VLPS 230500Z 2306/2406 18004KT 9999 SCT023 FEW050 SCT200

Observacions i pronòstics meteorològics de més de 4000 aeroports (METAR i TAF).

Les estacions disponibles són els punts grocs i vermells al mapa.

Posi el ratolí al punt desitjat per veure el nom de l'estació.

Feu clic per veure les observacions i els pronòstics meteorològics.

Per canviar el mapa: feu clic els botons verds amb una creu de color negre per apropar; al botó verd amb un guió per allunyar la imatge; o en les fletxes verdes per a mapes adjacents.


METAR-TAF: